Time;durP1;ratioP1;P1;durP2;ratioP2;P2;SDS_P1;SDS_P2;PMS_P1;PMS_P2;Temp;Humidity;BMP_temperature;BMP_pressure;BME280_temperature;BME280_humidity;BME280_pressure;Samples;Min_cycle;Max_cycle;Signal;HPM_P1;HPM_P2
2022/06/08 00:01:01;;;;;;;1.00;0.93;;;;;;;20.53;75.66;99005.44;5034222;28;20049;-66
2022/06/08 00:03:38;;;;;;;1.00;0.70;;;;;;;20.50;75.64;99007.31;5034112;28;20042;-65
2022/06/08 00:06:07;;;;;;;1.15;0.80;;;;;;;20.39;75.57;99001.88;5034423;28;20060;-66
2022/06/08 00:08:36;;;;;;;0.85;0.85;;;;;;;20.46;nan;99003.22;5034168;28;20057;-66
2022/06/08 00:11:08;;;;;;;1.38;1.27;;;;;;;20.37;75.95;98990.75;5033802;28;20052;-66
2022/06/08 00:13:38;;;;;;;0.85;0.85;;;;;;;20.44;76.13;98999.88;5034398;28;20038;-66
2022/06/08 00:16:19;;;;;;;;;;;;;;;20.44;75.91;98994.69;5034431;28;20041;-66
2022/06/08 00:18:50;;;;;;;1.20;1.10;;;;;;;20.43;76.28;98993.84;5034093;28;19943;-67
2022/06/08 00:21:22;;;;;;;1.45;1.15;;;;;;;20.43;76.16;99001.63;5033725;28;20491;-65
2022/06/08 00:23:51;;;;;;;0.75;0.75;;;;;;;20.32;76.40;98985.81;5033574;28;20052;-65
2022/06/08 00:26:25;;;;;;;0.70;0.70;;;;;;;20.45;76.33;99023.13;5033652;28;20049;-66
2022/06/08 00:28:58;;;;;;;0.82;0.80;;;;;;;20.39;76.34;99013.09;5033859;28;20065;-66
2022/06/08 00:31:31;;;;;;;1.10;1.00;;;;;;;20.51;76.04;99028.00;5016306;28;20046;-66
2022/06/08 00:34:02;;;;;;;1.65;1.55;;;;;;;20.51;76.02;99016.78;5033900;28;20049;-66
2022/06/08 00:36:59;;;;;;;1.60;1.05;;;;;;;20.48;75.92;99006.56;5016341;28;20096;-66
2022/06/08 00:39:28;;;;;;;1.98;1.33;;;;;;;20.43;75.86;99000.78;5033778;28;20041;-66
2022/06/08 00:42:00;;;;;;;4.72;1.63;;;;;;;20.43;75.94;98998.19;5015855;28;20128;-66
2022/06/08 00:44:34;;;;;;;1.10;0.88;;;;;;;20.45;76.09;98993.75;5033349;28;20548;-66
2022/06/08 00:47:07;;;;;;;1.30;1.02;;;;;;;20.47;76.16;98986.75;5033470;28;20057;-65
2022/06/08 00:49:44;;;;;;;0.60;0.60;;;;;;;20.49;75.93;98992.72;5033503;28;20050;-66
2022/06/08 00:52:17;;;;;;;1.13;1.02;;;;;;;20.51;75.96;98996.06;5033400;28;20053;-66
2022/06/08 00:54:51;;;;;;;2.05;1.33;;;;;;;20.49;75.97;98997.91;5033223;28;20045;-66
2022/06/08 00:57:24;;;;;;;1.10;1.00;;;;;;;20.44;76.27;99011.06;5033352;28;20050;-65
2022/06/08 01:00:00;;;;;;;1.95;1.35;;;;;;;20.34;76.03;99037.56;5033860;28;20056;-64
2022/06/08 01:02:30;;;;;;;2.25;1.20;;;;;;;20.14;76.27;99025.56;5015751;28;20062;-65
2022/06/08 01:05:28;;;;;;;1.33;1.23;;;;;;;20.22;76.29;99043.31;5033638;28;20140;-65
2022/06/08 01:08:04;;;;;;;0.82;0.80;;;;;;;20.12;76.64;99024.81;5033763;28;20055;-65
2022/06/08 01:10:42;;;;;;;0.60;0.60;;;;;;;19.92;76.87;98981.75;5015700;28;20503;-65
2022/06/08 01:13:28;;;;;;;0.60;0.60;;;;;;;19.93;76.78;98978.25;5015906;28;20049;-65
2022/06/08 01:16:12;;;;;;;1.25;1.15;;;;;;;20.05;77.03;98997.53;5015614;28;20042;-65
2022/06/08 01:18:42;;;;;;;1.35;0.93;;;;;;;19.98;76.71;99007.34;5015898;28;20088;-65
2022/06/08 01:21:41;;;;;;;1.52;1.42;;;;;;;19.97;77.03;99005.66;5015512;28;20046;-65
2022/06/08 01:24:20;;;;;;;0.85;0.85;;;;;;;19.89;77.22;98997.44;5015555;28;20076;-65
2022/06/08 01:27:03;;;;;;;0.77;0.70;;;;;;;19.84;77.06;98983.88;5015661;28;20053;-65
2022/06/08 01:29:41;;;;;;;0.90;0.90;;;;;;;19.86;77.16;98973.44;5015514;28;20037;-65
2022/06/08 01:32:19;;;;;;;0.65;0.65;;;;;;;19.88;77.17;98964.69;5033019;28;20056;-65
2022/06/08 01:35:17;;;;;;;0.70;0.70;;;;;;;19.96;76.94;98978.06;5032980;28;20151;-65
2022/06/08 01:38:01;;;;;;;0.88;0.88;;;;;;;19.85;77.07;98974.34;5015282;28;20047;-65
2022/06/08 01:40:58;;;;;;;0.65;0.65;;;;;;;19.89;76.92;98994.84;5033361;28;20069;-65
2022/06/08 01:43:44;;;;;;;0.82;0.82;;;;;;;19.80;77.04;98984.94;5036394;28;20100;-65
2022/06/08 01:46:21;;;;;;;1.13;0.93;;;;;;;19.68;77.09;98982.09;5019388;28;20491;-65
2022/06/08 01:49:07;;;;;;;1.58;1.48;;;;;;;19.66;77.12;98987.38;5018859;28;20045;-64
2022/06/08 01:52:00;;;;;;;0.80;0.70;;;;;;;19.63;77.28;98990.09;5037041;28;20458;-65
2022/06/08 01:54:44;;;;;;;1.08;0.77;;;;;;;19.61;77.51;98973.81;5018724;28;20068;-65
2022/06/08 01:57:29;;;;;;;0.70;0.70;;;;;;;19.77;77.61;98976.50;5019285;28;20061;-66
2022/06/08 02:00:05;;;;;;;0.63;0.63;;;;;;;19.78;77.45;98950.50;5018950;28;20072;-66
2022/06/08 02:02:55;;;;;;;1.42;0.98;;;;;;;19.72;77.39;98922.34;5036269;28;20046;-65
2022/06/08 02:05:39;;;;;;;1.08;0.82;;;;;;;19.77;77.48;98930.69;5036139;28;20049;-65
2022/06/08 02:08:20;;;;;;;0.50;0.50;;;;;;;19.79;77.64;98939.25;5018729;28;20053;-66
2022/06/08 02:10:54;;;;;;;0.70;0.70;;;;;;;19.84;77.39;98946.78;5018522;28;20092;-66
2022/06/08 02:13:34;;;;;;;0.68;0.68;;;;;;;19.82;77.13;98933.91;5018444;28;20052;-66
2022/06/08 02:16:10;;;;;;;0.73;0.73;;;;;;;19.79;76.90;98903.00;5018397;28;20121;-66
2022/06/08 02:18:45;;;;;;;0.60;0.60;;;;;;;19.65;77.06;98884.69;5018515;28;20072;-65
2022/06/08 02:21:20;;;;;;;0.63;0.63;;;;;;;19.76;77.19;98912.66;5036141;28;20442;-66
2022/06/08 02:23:53;;;;;;;1.13;0.98;;;;;;;19.72;77.42;98921.50;5035838;28;20069;-67
2022/06/08 02:26:28;;;;;;;0.70;0.70;;;;;;;19.78;77.22;98953.09;5036303;28;20045;-66
2022/06/08 02:29:03;;;;;;;2.15;1.15;;;;;;;19.78;77.31;98963.47;5036135;28;20084;-64
2022/06/08 02:31:38;;;;;;;1.13;1.02;;;;;;;19.70;77.18;98970.75;5036047;28;20049;-64
2022/06/08 02:37:03;;;;;;;1.75;1.13;;;;;;;19.66;77.40;98969.25;5035580;28;20049;-65
2022/06/08 02:39:38;;;;;;;1.45;0.98;;;;;;;19.71;77.31;98963.84;5018263;28;20442;-66
2022/06/08 02:42:11;;;;;;;1.27;0.93;;;;;;;19.73;77.73;98947.31;5035276;28;20538;-66
2022/06/08 02:44:48;;;;;;;1.17;1.05;;;;;;;19.16;78.52;98860.41;5035403;28;20069;-66
2022/06/08 02:47:29;;;;;;;0.93;0.90;;;;;;;19.62;78.59;98946.16;5017735;28;20045;-66
2022/06/08 02:50:09;;;;;;;1.20;1.05;;;;;;;19.62;79.31;98961.69;5018071;28;20049;-66
2022/06/08 02:52:45;;;;;;;2.20;1.38;;;;;;;19.60;79.37;98972.16;5016492;28;20042;-66
2022/06/08 02:55:20;;;;;;;1.67;1.02;;;;;;;19.57;79.26;98969.69;5017739;28;20068;-65
2022/06/08 02:57:59;;;;;;;1.58;1.48;;;;;;;19.57;79.58;98969.69;5035251;28;20056;-65
2022/06/08 03:00:35;;;;;;;0.70;0.70;;;;;;;19.63;79.54;98956.44;5035149;28;20050;-65
2022/06/08 03:03:28;;;;;;;0.70;0.70;;;;;;;19.63;79.46;98961.63;5035506;28;20076;-66
2022/06/08 03:06:11;;;;;;;0.73;0.73;;;;;;;19.55;79.78;98966.34;5017429;28;20073;-67
2022/06/08 03:08:43;;;;;;;1.70;0.98;;;;;;;19.58;80.00;98979.13;5001461;28;20084;-66
2022/06/08 03:11:16;;;;;;;1.02;1.02;;;;;;;19.58;80.19;98973.13;5017378;28;20133;-66
2022/06/08 03:13:52;;;;;;;1.73;0.70;;;;;;;19.54;80.39;98969.84;5034995;28;20487;-67
2022/06/08 03:16:28;;;;;;;0.85;0.82;;;;;;;19.50;80.57;98970.91;5034873;28;20049;-67
2022/06/08 03:19:02;;;;;;;1.55;1.45;;;;;;;19.48;80.61;98959.78;5017508;28;20076;-67
2022/06/08 03:21:35;;;;;;;6.32;1.30;;;;;;;19.42;80.75;98944.53;5017054;28;20048;-68
2022/06/08 03:24:06;;;;;;;0.90;0.82;;;;;;;19.25;80.90;98928.94;5017418;28;20513;-68
2022/06/08 03:26:42;;;;;;;0.75;0.75;;;;;;;19.32;81.03;98941.53;5017023;28;20080;-68
2022/06/08 03:29:17;;;;;;;0.70;0.70;;;;;;;19.15;81.02;98909.59;5017243;28;20049;-68
2022/06/08 03:31:57;;;;;;;1.10;1.00;;;;;;;19.22;81.01;98932.53;5017007;28;20049;-69
2022/06/08 03:34:29;;;;;;;0.50;0.50;;;;;;;19.17;81.10;98944.03;5017185;28;20045;-69
2022/06/08 03:37:08;;;;;;;0.57;0.57;;;;;;;19.12;81.09;98951.16;5034511;28;20128;-69
2022/06/08 03:39:41;;;;;;;0.75;0.75;;;;;;;19.07;81.30;98940.19;5034561;28;20135;-68
2022/06/08 03:42:10;;;;;;;0.73;0.73;;;;;;;19.12;81.25;98961.50;5016443;28;20065;-69
2022/06/08 03:44:41;;;;;;;0.75;0.75;;;;;;;19.11;81.19;98965.00;5016937;28;20459;-68
2022/06/08 03:47:25;;;;;;;1.00;0.90;;;;;;;19.14;81.49;98972.63;5034187;28;20041;-69
2022/06/08 03:49:56;;;;;;;0.70;0.70;;;;;;;19.12;81.33;98989.97;5016796;28;20071;-69
2022/06/08 03:52:29;;;;;;;0.75;0.75;;;;;;;19.13;81.25;99009.72;5034518;28;20111;-69
2022/06/08 03:55:08;;;;;;;6.72;1.45;;;;;;;19.12;81.17;99023.59;5034143;28;20053;-66
2022/06/08 03:57:45;;;;;;;1.83;1.45;;;;;;;19.14;81.42;99045.91;5016542;28;20049;-68
2022/06/08 04:00:29;;;;;;;;;;;;;;;19.11;81.35;99068.47;5017305;28;20056;-66
2022/06/08 04:03:10;;;;;;;0.63;0.63;;;;;;;18.81;81.42;99080.19;5033989;28;20023;-67
2022/06/08 04:05:48;;;;;;;5.65;1.52;;;;;;;18.63;82.24;99069.72;5033806;28;20561;-66
2022/06/08 04:08:36;;;;;;;0.80;0.80;;;;;;;18.66;82.93;99061.84;5034262;28;20053;-67
2022/06/08 04:11:13;;;;;;;0.80;0.80;;;;;;;18.63;83.24;99076.63;5034268;28;20431;-67
2022/06/08 04:13:43;;;;;;;0.98;0.88;;;;;;;18.51;83.77;99093.53;5000143;28;20413;-68
2022/06/08 04:16:21;;;;;;;1.95;1.67;;;;;;;18.54;84.15;99106.31;5016513;28;20057;-67
2022/06/08 04:18:53;;;;;;;1.80;1.02;;;;;;;18.52;84.20;99113.28;5016424;28;20056;-68
2022/06/08 04:36:32;;;;;;;0.75;0.75;;;;;;;19.10;84.35;99044.34;5132654;27;20383;-65
2022/06/08 04:39:08;;;;;;;1.35;1.00;;;;;;;19.09;84.14;99039.25;5130424;28;20047;-65
2022/06/08 04:41:44;;;;;;;1.38;1.10;;;;;;;19.09;83.94;99034.91;5130472;28;20079;-65
2022/06/08 04:44:14;;;;;;;1.20;0.95;;;;;;;19.14;83.98;99037.28;5130366;28;20044;-66
2022/06/08 04:46:44;;;;;;;0.70;0.70;;;;;;;19.14;83.74;99042.47;5130664;28;20047;-65
2022/06/08 04:49:28;;;;;;;1.17;1.08;;;;;;;19.17;83.76;99050.09;5130541;28;20049;-66
2022/06/08 04:52:05;;;;;;;0.70;0.70;;;;;;;19.17;83.58;99063.03;5130275;28;20043;-65
2022/06/08 04:54:38;;;;;;;0.60;0.60;;;;;;;19.05;83.43;99066.19;5130253;28;20061;-65
2022/06/08 04:57:24;;;;;;;1.10;0.93;;;;;;;19.02;83.56;99053.38;5130466;28;20272;-65
2022/06/08 04:59:55;;;;;;;0.75;0.75;;;;;;;19.00;83.74;99044.84;5131222;27;20055;-67
2022/06/08 05:05:19;;;;;;;6.85;1.95;;;;;;;18.96;83.97;99018.25;5130482;28;20071;-66
2022/06/08 05:08:00;;;;;;;0.77;0.75;;;;;;;18.96;84.12;99014.84;5131516;27;20075;-66
2022/06/08 05:10:37;;;;;;;0.82;0.75;;;;;;;18.96;84.01;99013.09;5131039;27;20566;-66
2022/06/08 05:13:13;;;;;;;0.40;0.40;;;;;;;18.90;84.12;99013.38;5129896;28;20043;-67
2022/06/08 05:15:46;;;;;;;1.05;1.00;;;;;;;18.84;84.08;99010.22;5129798;28;20052;-66
2022/06/08 05:18:20;;;;;;;0.60;0.60;;;;;;;18.77;84.12;99006.22;5131242;27;20486;-66
2022/06/08 05:20:53;;;;;;;0.50;0.50;;;;;;;18.76;84.21;99007.16;5129959;28;20049;-66
2022/06/08 05:37:42;;;;;;;0.82;0.77;;;;;;;18.73;84.16;99060.69;5152999;27;20403;-67
2022/06/08 05:40:12;;;;;;;1.05;0.80;;;;;;;18.64;84.04;99057.66;5131946;27;20406;-68
2022/06/08 05:42:41;;;;;;;0.98;0.98;;;;;;;18.61;84.15;99061.22;5130709;28;20419;-66
2022/06/08 05:45:18;;;;;;;1.40;1.10;;;;;;;18.61;84.21;99057.78;5130372;28;20490;-68
2022/06/08 05:48:04;;;;;;;0.70;0.70;;;;;;;18.69;84.39;99056.53;5130365;28;20069;-68
2022/06/08 05:51:02;;;;;;;1.40;0.82;;;;;;;18.68;84.21;99064.38;5130487;28;20057;-66
2022/06/08 05:53:39;;;;;;;0.70;0.70;;;;;;;18.66;84.23;99071.34;5130310;28;20035;-65
2022/06/08 05:56:08;;;;;;;1.10;1.00;;;;;;;18.65;84.50;99060.16;5130620;28;20070;-66
2022/06/08 05:58:50;;;;;;;0.73;0.73;;;;;;;18.66;84.69;99061.84;5131690;27;20043;-67
2022/06/08 06:01:20;;;;;;;0.52;0.52;;;;;;;18.70;84.59;99078.06;5130686;28;20071;-67
2022/06/08 06:03:49;;;;;;;0.80;0.80;;;;;;;18.64;84.54;99088.69;5130092;28;20054;-66
2022/06/08 06:06:18;;;;;;;0.80;0.80;;;;;;;18.53;84.44;99063.28;5130063;28;20047;-68
2022/06/08 06:08:58;;;;;;;0.88;0.88;;;;;;;18.54;84.75;99040.84;5131411;27;20050;-66
2022/06/08 06:11:27;;;;;;;0.65;0.65;;;;;;;18.54;84.90;99057.22;5131117;27;20077;-67
2022/06/08 06:13:55;;;;;;;0.75;0.75;;;;;;;18.57;85.00;99059.63;5131320;27;20046;-68
2022/06/08 06:16:26;;;;;;;;;;;;;;;18.63;85.32;99056.81;5130269;28;20043;-67
2022/06/08 06:19:00;;;;;;;0.70;0.70;;;;;;;18.70;85.24;99053.06;5131241;27;19989;-69
2022/06/08 06:21:39;;;;;;;0.80;0.80;;;;;;;18.72;85.14;99053.81;5131237;27;20094;-67
2022/06/08 06:24:46;;;;;;;0.57;0.57;;;;;;;18.73;85.10;99052.91;5128532;28;20055;-68
2022/06/08 06:27:47;;;;;;;0.70;0.70;;;;;;;18.77;85.05;99043.28;5122523;28;20047;-68
2022/06/08 06:30:33;;;;;;;0.93;0.75;;;;;;;18.70;85.14;99027.19;5131110;27;20055;-68
2022/06/08 06:33:17;;;;;;;0.70;0.70;;;;;;;18.81;85.23;99038.81;5130876;28;20401;-68
2022/06/08 06:35:48;;;;;;;1.15;0.85;;;;;;;18.84;85.09;99036.06;5129247;28;20043;-71
2022/06/08 06:38:24;;;;;;;0.60;0.60;;;;;;;18.83;85.06;99031.81;5117560;28;20056;-68
2022/06/08 06:40:56;;;;;;;0.80;0.80;;;;;;;18.85;85.21;99030.00;5115530;28;20080;-71
2022/06/08 06:43:27;;;;;;;0.50;0.50;;;;;;;18.92;85.27;99026.22;5113423;28;20501;-70
2022/06/08 06:46:25;;;;;;;0.60;0.60;;;;;;;18.97;85.37;99025.13;5092697;28;20521;-69
2022/06/08 06:49:04;;;;;;;2.05;1.50;;;;;;;18.92;85.45;99014.16;5116624;28;20283;-69
2022/06/08 06:51:35;;;;;;;0.90;0.70;;;;;;;19.10;85.21;99040.94;5115439;28;20127;-68
2022/06/08 06:54:07;;;;;;;0.75;0.75;;;;;;;19.15;85.17;99033.78;5115675;28;20085;-68
2022/06/08 06:56:38;;;;;;;0.45;0.45;;;;;;;19.16;85.00;99040.66;5114934;28;20043;-68
2022/06/08 06:59:16;;;;;;;1.15;1.05;;;;;;;19.25;84.85;99040.22;5099511;28;20044;-68
2022/06/08 07:01:49;;;;;;;1.25;0.88;;;;;;;19.31;84.77;99021.84;5095076;28;20051;-68
2022/06/08 07:04:19;;;;;;;0.50;0.50;;;;;;;19.32;84.59;99016.56;5094190;28;20040;-68
2022/06/08 07:06:49;;;;;;;1.52;1.35;;;;;;;19.38;84.41;99024.09;5109581;28;20518;-68
2022/06/08 07:09:27;;;;;;;1.92;1.05;;;;;;;19.33;84.38;99020.00;5101397;28;20070;-67
2022/06/08 07:11:59;;;;;;;0.60;0.60;;;;;;;19.30;84.25;99018.41;5095179;28;20032;-67
2022/06/08 07:14:33;;;;;;;0.82;0.82;;;;;;;19.36;84.16;99010.38;5094514;28;20097;-69
2022/06/08 07:17:05;;;;;;;1.45;0.93;;;;;;;19.45;83.93;99011.69;5096769;28;20048;-66
2022/06/08 07:19:39;;;;;;;0.75;0.73;;;;;;;19.52;83.89;99023.44;5106844;28;20040;-68
2022/06/08 07:22:10;;;;;;;0.70;0.70;;;;;;;19.53;83.57;99017.34;5113213;27;20036;-66
2022/06/08 07:24:39;;;;;;;0.57;0.57;;;;;;;19.55;83.63;99023.31;5094991;28;20052;-67
2022/06/08 07:27:10;;;;;;;0.67;0.67;;;;;;;19.58;83.33;99022.31;5096070;28;20116;-67
2022/06/08 07:29:42;;;;;;;0.50;0.50;;;;;;;19.65;83.36;99028.88;5113030;28;20754;-67
2022/06/08 07:32:11;;;;;;;0.50;0.50;;;;;;;19.69;83.10;99026.06;5115562;28;20054;-66
2022/06/08 07:34:46;;;;;;;0.50;0.50;;;;;;;19.63;82.95;99026.34;5115575;28;20126;-66
2022/06/08 07:37:15;;;;;;;0.70;0.70;;;;;;;19.59;82.98;99017.06;5114896;28;20048;-66
2022/06/08 07:39:44;;;;;;;0.50;0.50;;;;;;;19.62;82.96;99019.50;5115135;28;20055;-65
2022/06/08 07:42:14;;;;;;;1.13;1.02;;;;;;;19.67;82.72;99014.94;5115677;28;20382;-65
2022/06/08 07:44:43;;;;;;;0.60;0.60;;;;;;;19.71;83.08;99013.88;5115393;28;20047;-66
2022/06/08 07:47:12;;;;;;;0.50;0.50;;;;;;;19.68;82.79;99003.66;5115074;28;20126;-66
2022/06/08 07:49:41;;;;;;;0.65;0.65;;;;;;;19.79;83.10;99001.41;5113410;28;20126;-65
2022/06/08 07:52:12;;;;;;;0.70;0.63;;;;;;;19.78;83.05;98979.00;5114815;28;20193;-65
2022/06/08 07:54:43;;;;;;;0.65;0.63;;;;;;;20.04;83.05;98996.69;5114831;28;20048;-66
2022/06/08 07:57:16;;;;;;;0.85;0.60;;;;;;;20.21;83.06;98989.81;5115678;28;20559;-66
2022/06/08 07:59:48;;;;;;;0.60;0.60;;;;;;;20.17;82.74;98952.00;5114325;28;20051;-65
2022/06/08 08:02:17;;;;;;;0.50;0.50;;;;;;;20.47;82.37;98985.00;5115611;28;20055;-65
2022/06/08 08:04:46;;;;;;;1.20;1.10;;;;;;;20.52;82.00;98987.34;5111318;28;20047;-65
2022/06/08 08:07:17;;;;;;;0.63;0.63;;;;;;;19.75;81.50;98860.03;5106369;28;20472;-66
2022/06/08 08:09:48;;;;;;;0.93;0.90;;;;;;;20.45;81.29;98991.16;5104385;28;20455;-66
2022/06/08 08:12:19;;;;;;;0.60;0.60;;;;;;;20.41;81.10;98985.31;5114919;28;20040;-65
2022/06/08 08:14:48;;;;;;;0.68;0.68;;;;;;;20.51;81.22;98990.88;5102631;28;20117;-65
2022/06/08 08:17:17;;;;;;;0.63;0.63;;;;;;;20.46;80.60;98988.53;5109540;28;20118;-65
2022/06/08 08:19:46;;;;;;;1.65;1.10;;;;;;;20.52;80.54;98982.16;5114140;28;20042;-65
2022/06/08 08:22:19;;;;;;;0.60;0.60;;;;;;;20.65;80.55;98983.19;5099275;28;20044;-65
2022/06/08 08:24:48;;;;;;;0.77;0.77;;;;;;;20.73;80.27;98985.41;5104569;28;20078;-66
2022/06/08 08:27:18;;;;;;;0.80;0.80;;;;;;;20.67;80.03;98989.13;5112042;28;20047;-65
2022/06/08 08:29:47;;;;;;;0.93;0.88;;;;;;;20.69;79.91;98992.47;5111586;28;20489;-65
2022/06/08 08:32:16;;;;;;;0.87;0.87;;;;;;;20.79;79.98;98985.06;5114396;28;20050;-65
2022/06/08 08:34:48;;;;;;;0.52;0.52;;;;;;;20.81;79.81;98989.25;5104669;28;20276;-66
2022/06/08 08:37:17;;;;;;;0.60;0.60;;;;;;;20.88;79.61;98993.19;5109032;28;20086;-65
2022/06/08 08:39:46;;;;;;;0.77;0.77;;;;;;;20.85;79.50;98993.34;5108837;28;20474;-65
2022/06/08 08:42:22;;;;;;;0.70;0.70;;;;;;;20.83;79.09;98997.78;5105817;28;20036;-65
2022/06/08 08:44:52;;;;;;;0.82;0.80;;;;;;;20.87;79.02;99001.91;5112509;28;20052;-65
2022/06/08 08:47:42;;;;;;;0.82;0.70;;;;;;;20.86;78.52;98997.63;5114263;28;20046;-65
2022/06/08 08:50:16;;;;;;;;;;;;;;;20.95;78.58;98991.94;5094414;28;20048;-65
2022/06/08 08:52:50;;;;;;;0.63;0.60;;;;;;;20.90;78.39;98990.53;5094608;28;20285;-65
2022/06/08 08:55:28;;;;;;;0.73;0.68;;;;;;;20.91;78.59;98985.25;5098862;28;20490;-65
2022/06/08 08:58:05;;;;;;;1.48;0.90;;;;;;;20.92;78.42;98991.28;5113472;28;20119;-65
2022/06/08 09:00:37;;;;;;;0.70;0.70;;;;;;;20.85;78.29;98990.75;5112825;28;20038;-65
2022/06/08 09:03:20;;;;;;;0.65;0.65;;;;;;;20.89;78.19;98987.09;5109256;27;20040;-65
2022/06/08 09:05:52;;;;;;;0.60;0.60;;;;;;;20.82;78.14;98970.19;5111358;28;20036;-66
2022/06/08 09:08:24;;;;;;;0.50;0.50;;;;;;;20.97;77.97;98987.50;5114245;28;20047;-65
2022/06/08 09:10:59;;;;;;;0.52;0.52;;;;;;;20.99;78.03;98988.28;5112954;28;20048;-65
2022/06/08 09:13:41;;;;;;;0.50;0.50;;;;;;;21.00;77.87;98984.75;5114394;28;20043;-65
2022/06/08 09:16:28;;;;;;;0.70;0.70;;;;;;;20.94;77.45;98973.88;5113968;28;20048;-65
2022/06/08 09:18:57;;;;;;;0.60;0.60;;;;;;;20.88;77.63;98972.44;5113330;28;20055;-65
2022/06/08 09:21:32;;;;;;;0.50;0.50;;;;;;;20.92;77.71;98976.56;5114123;28;20440;-65
2022/06/08 09:24:07;;;;;;;1.27;0.90;;;;;;;20.90;77.78;98973.19;5113867;28;20043;-65
2022/06/08 09:26:40;;;;;;;0.40;0.40;;;;;;;20.97;77.63;98963.31;5113855;28;20062;-65
2022/06/08 09:29:17;;;;;;;0.50;0.50;;;;;;;21.03;77.87;98961.22;5113730;28;20052;-65
2022/06/08 09:31:51;;;;;;;2.95;0.70;;;;;;;21.00;77.60;98958.78;5103832;28;20071;-65
2022/06/08 09:34:24;;;;;;;0.50;0.50;;;;;;;20.96;77.71;98959.88;5099322;28;20043;-66
2022/06/08 09:37:06;;;;;;;0.70;0.70;;;;;;;21.06;77.59;98961.09;5092183;28;20086;-66
2022/06/08 09:39:37;;;;;;;0.82;0.80;;;;;;;21.14;76.81;98966.69;5099225;28;20395;-65
2022/06/08 09:42:31;;;;;;;0.60;0.60;;;;;;;21.25;76.88;98971.31;5114160;28;20036;-66
2022/06/08 09:45:06;;;;;;;1.05;0.80;;;;;;;21.34;76.41;98974.22;5113308;28;20043;-65
2022/06/08 09:53:18;;;;;;;0.80;0.57;;;;;;;21.83;75.21;98961.06;5110810;28;20047;-65
2022/06/08 09:56:06;;;;;;;1.17;1.08;;;;;;;21.90;74.54;98957.22;5106645;28;20044;-66
2022/06/08 09:58:54;;;;;;;0.40;0.40;;;;;;;22.07;73.99;98948.41;5097460;28;20052;-66
2022/06/08 10:01:32;;;;;;;0.65;0.65;;;;;;;22.19;73.66;98948.53;5092305;28;20044;-65
2022/06/08 10:04:18;;;;;;;0.70;0.70;;;;;;;22.26;73.06;98949.84;5093514;28;20513;-65
2022/06/08 10:07:00;;;;;;;0.50;0.50;;;;;;;22.40;72.73;98947.25;5093822;28;20394;-65
2022/06/08 10:09:37;;;;;;;0.60;0.60;;;;;;;22.72;73.04;98952.28;5102670;28;20047;-66
2022/06/08 10:12:18;;;;;;;0.40;0.40;;;;;;;22.80;72.22;98950.00;5114106;28;20051;-67
2022/06/08 10:14:55;;;;;;;0.50;0.50;;;;;;;22.85;71.46;98942.75;5117608;28;20379;-65
2022/06/08 10:17:40;;;;;;;0.60;0.60;;;;;;;23.22;71.18;98947.34;5097222;28;20086;-65
2022/06/08 10:20:16;;;;;;;1.00;0.90;;;;;;;23.61;70.87;98939.56;5096770;28;20132;-67
2022/06/08 10:22:49;;;;;;;0.70;0.70;;;;;;;23.75;69.68;98942.13;5100707;28;20044;-65
2022/06/08 10:25:22;;;;;;;1.42;1.00;;;;;;;23.57;68.52;98943.31;5096643;28;20075;-64
2022/06/08 10:27:55;;;;;;;0.75;0.75;;;;;;;23.68;68.96;98938.22;5096056;28;20036;-65
2022/06/08 10:30:38;;;;;;;1.20;0.77;;;;;;;23.71;68.19;98939.78;5096843;28;20063;-65
2022/06/08 10:33:25;;;;;;;0.85;0.77;;;;;;;23.93;67.71;98940.88;5095181;28;20056;-66
2022/06/08 10:35:57;;;;;;;1.13;1.00;;;;;;;23.75;67.12;98930.84;5095653;28;20545;-65
2022/06/08 10:38:31;;;;;;;0.50;0.50;;;;;;;23.69;66.97;98933.84;5095966;28;20130;-65
2022/06/08 10:44:06;;;;;;;1.98;1.33;;;;;;;23.86;67.27;98923.97;5096573;28;20040;-65
2022/06/08 10:46:44;;;;;;;0.70;0.60;;;;;;;23.90;66.99;98919.38;5096337;28;20072;-66
2022/06/08 10:49:51;;;;;;;0.50;0.50;;;;;;;23.70;67.00;98918.13;5096492;28;20491;-65
2022/06/08 10:52:41;;;;;;;0.60;0.57;;;;;;;23.82;67.48;98912.09;5096304;28;20079;-65
2022/06/08 10:55:30;;;;;;;0.60;0.60;;;;;;;23.76;67.27;98902.06;5096201;28;20059;-66
2022/06/08 10:58:22;;;;;;;0.90;0.70;;;;;;;23.67;67.37;98912.28;5096122;28;20127;-64
2022/06/08 11:01:01;;;;;;;0.55;0.55;;;;;;;23.80;67.57;98902.72;5103995;28;20053;-66
2022/06/08 11:03:49;;;;;;;0.70;0.70;;;;;;;23.93;67.75;98908.75;5116507;28;20044;-66
2022/06/08 11:06:41;;;;;;;2.13;1.00;;;;;;;24.05;67.48;98902.72;5101556;28;20507;-66
2022/06/08 11:09:20;;;;;;;0.50;0.50;;;;;;;24.04;66.99;98889.78;5096255;28;20452;-65
2022/06/08 11:12:03;;;;;;;1.00;0.95;;;;;;;24.14;67.29;98893.47;5104173;28;20461;-66
2022/06/08 11:14:51;;;;;;;5.05;1.13;;;;;;;24.32;66.90;98889.59;5095958;28;20095;-65
2022/06/08 11:17:25;;;;;;;1.63;0.82;;;;;;;24.37;66.44;98888.34;5094468;28;20544;-66
2022/06/08 11:19:58;;;;;;;1.85;1.27;;;;;;;24.56;66.13;98882.66;5100735;28;20046;-66
2022/06/08 11:22:37;;;;;;;0.63;0.63;;;;;;;24.81;65.94;98887.81;5107021;28;20040;-66
2022/06/08 11:25:23;;;;;;;1.95;1.17;;;;;;;24.94;65.50;98888.63;5095868;28;20131;-67
2022/06/08 11:28:17;;;;;;;0.70;0.70;;;;;;;24.83;64.84;98885.97;5095848;28;20047;-66
2022/06/08 11:31:00;;;;;;;0.57;0.57;;;;;;;24.70;64.60;98882.50;5095586;28;20470;-67
2022/06/08 11:33:49;;;;;;;0.73;0.73;;;;;;;24.66;64.79;98881.06;5098958;28;20126;-67
2022/06/08 11:36:29;;;;;;;;;;;;;;;24.63;65.19;98870.84;5096014;28;20048;-66
2022/06/08 11:39:02;;;;;;;0.68;0.68;;;;;;;24.67;64.73;98870.50;5102495;28;19927;-65
2022/06/08 11:41:37;;;;;;;0.93;0.80;;;;;;;24.70;64.93;98866.84;5097927;28;20044;-66
2022/06/08 11:44:14;;;;;;;1.00;0.90;;;;;;;24.81;65.06;98864.31;5095191;28;20044;-65
2022/06/08 11:46:46;;;;;;;0.70;0.70;;;;;;;24.92;65.08;98868.78;5095088;28;20071;-65
2022/06/08 11:49:34;;;;;;;1.25;1.13;;;;;;;24.84;64.50;98866.72;5095301;28;20048;-66
2022/06/08 11:52:17;;;;;;;0.70;0.70;;;;;;;24.62;64.53;98866.56;5105104;28;20128;-65
2022/06/08 11:54:47;;;;;;;1.15;1.05;;;;;;;24.42;65.02;98859.31;5097490;28;20062;-66
2022/06/08 11:57:21;;;;;;;1.20;0.90;;;;;;;24.46;65.36;98865.97;5102242;28;20132;-65
2022/06/08 11:59:53;;;;;;;1.25;1.15;;;;;;;24.41;65.28;98847.19;5097571;28;20440;-65
2022/06/08 12:02:26;;;;;;;0.57;0.57;;;;;;;24.27;65.47;98852.56;5096449;28;20086;-65
2022/06/08 12:04:58;;;;;;;0.88;0.82;;;;;;;24.20;65.72;98848.69;5095142;28;20101;-65
2022/06/08 12:07:49;;;;;;;0.70;0.70;;;;;;;24.19;66.18;98841.81;5093946;28;20044;-65
2022/06/08 12:10:21;;;;;;;1.70;1.60;;;;;;;24.12;66.04;98856.22;5094953;28;20444;-65
2022/06/08 12:12:53;;;;;;;0.70;0.70;;;;;;;24.08;65.85;98846.94;5101586;28;20039;-66
2022/06/08 12:15:33;;;;;;;0.60;0.60;;;;;;;24.13;66.06;98848.31;5097760;28;20040;-65
2022/06/08 12:18:20;;;;;;;0.73;0.73;;;;;;;24.15;66.00;98858.63;5094649;28;20067;-66
2022/06/08 12:21:01;;;;;;;0.80;0.80;;;;;;;24.20;65.96;98848.69;5094474;28;20056;-65
2022/06/08 12:23:42;;;;;;;0.95;0.88;;;;;;;24.27;65.69;98849.94;5095494;28;20052;-66
2022/06/08 12:26:19;;;;;;;0.90;0.85;;;;;;;24.32;65.94;98846.09;5114939;28;20372;-66
2022/06/08 12:29:00;;;;;;;0.60;0.60;;;;;;;24.37;65.91;98840.53;5114565;28;20067;-66
2022/06/08 12:31:32;;;;;;;0.80;0.77;;;;;;;24.38;64.82;98836.97;5112452;28;20127;-67
2022/06/08 12:34:22;;;;;;;0.65;0.65;;;;;;;24.51;64.56;98833.41;5103073;28;20070;-64
2022/06/08 12:36:51;;;;;;;0.52;0.52;;;;;;;24.72;63.90;98825.81;5093774;28;20058;-65
2022/06/08 12:39:27;;;;;;;0.98;0.80;;;;;;;24.94;63.29;98818.13;5094136;28;20048;-66
2022/06/08 12:41:56;;;;;;;0.88;0.88;;;;;;;25.17;63.22;98812.03;5094425;28;20052;-66
2022/06/08 12:44:30;;;;;;;1.02;0.93;;;;;;;25.47;62.65;98810.72;5095846;28;20117;-66
2022/06/08 12:47:01;;;;;;;0.77;0.70;;;;;;;25.63;62.80;98826.91;5111182;28;20043;-65
2022/06/08 12:49:41;;;;;;;0.68;0.68;;;;;;;25.56;62.05;98828.31;5114359;28;20054;-66
2022/06/08 12:52:22;;;;;;;0.70;0.70;;;;;;;25.65;62.22;98830.25;5107514;28;20484;-65
2022/06/08 12:54:51;;;;;;;0.63;0.63;;;;;;;25.48;61.23;98841.16;5099193;28;20048;-66
2022/06/08 12:57:21;;;;;;;;;;;;;;;25.30;61.72;98838.94;5094610;28;20121;-65
2022/06/08 12:59:53;;;;;;;2.38;0.70;;;;;;;25.23;62.98;98842.94;5093792;28;19920;-65
2022/06/08 13:02:25;;;;;;;0.93;0.77;;;;;;;25.08;62.68;98844.06;5093864;28;20048;-66